createdAt,value
2017-07-26T00:02:46.691Z,59.7
2017-07-26T00:03:46.638Z,59.7
2017-07-26T00:04:46.569Z,59.86
2017-07-26T00:05:46.513Z,59.67
2017-07-26T00:06:46.461Z,59.86
2017-07-26T00:07:46.735Z,59.38
2017-07-26T00:08:46.326Z,60.06
2017-07-26T00:09:46.262Z,59.38
2017-07-26T00:10:46.199Z,59.77
2017-07-26T00:11:46.744Z,60.06
2017-07-26T00:12:46.229Z,59.31
2017-07-26T00:13:46.012Z,60.06
2017-07-26T00:14:45.953Z,59.96
2017-07-26T00:15:45.891Z,59.77
2017-07-26T00:16:45.827Z,59.6
2017-07-26T00:17:45.768Z,60.06
2017-07-26T00:18:45.707Z,59.86
2017-07-26T00:19:45.644Z,60.06
2017-07-26T00:20:45.581Z,60.09
2017-07-26T00:21:45.520Z,60.09
2017-07-26T00:22:45.457Z,59.48
2017-07-26T00:23:45.400Z,59.7
2017-07-26T00:24:45.335Z,60.06
2017-07-26T00:25:45.273Z,59.86
2017-07-26T00:26:45.210Z,59.48
2017-07-26T00:27:45.151Z,59.67
2017-07-26T00:28:45.088Z,59.8
2017-07-26T00:29:45.025Z,59.96
2017-07-26T00:30:44.970Z,59.86
2017-07-26T00:31:44.904Z,59.6
2017-07-26T00:32:44.841Z,59.67
2017-07-26T00:33:44.781Z,60.09
2017-07-26T00:34:44.718Z,60.09
2017-07-26T00:35:44.660Z,59.77
2017-07-26T00:36:44.596Z,59.8
2017-07-26T00:37:44.533Z,59.7
2017-07-26T00:38:44.624Z,59.51
2017-07-26T00:39:44.407Z,60.06
2017-07-26T00:40:44.347Z,59.51
2017-07-26T00:41:44.290Z,59.67
2017-07-26T00:42:44.221Z,60.09
2017-07-26T00:43:44.311Z,59.48
2017-07-26T00:44:44.100Z,59.86
2017-07-26T00:45:44.039Z,59.8
2017-07-26T00:46:43.976Z,59.67
2017-07-26T00:47:43.914Z,59.48
2017-07-26T00:48:43.855Z,59.77
2017-07-26T00:49:43.793Z,59.67
2017-07-26T00:50:43.730Z,59.86
2017-07-26T00:51:43.670Z,60.06
2017-07-26T00:52:43.605Z,59.7
2017-07-26T00:53:43.543Z,59.96
2017-07-26T00:54:43.484Z,59.58
2017-07-26T00:55:43.426Z,59.41
2017-07-26T00:56:43.358Z,59.67
2017-07-26T00:57:43.299Z,59.77
2017-07-26T00:58:43.234Z,59.77
2017-07-26T00:59:43.181Z,59.77
2017-07-26T01:00:43.109Z,59.38
2017-07-26T01:01:43.049Z,60.06
2017-07-26T01:02:42.989Z,60.06
2017-07-26T01:03:42.932Z,59.48
2017-07-26T01:04:42.868Z,59.67
2017-07-26T01:05:42.950Z,59.48
2017-07-26T01:06:42.418Z,60.06
2017-07-26T01:07:42.679Z,59.77
2017-07-26T01:08:42.617Z,59.67
2017-07-26T01:09:42.554Z,60.06
2017-07-26T01:10:42.647Z,59.67
2017-07-26T01:11:42.432Z,60.09
2017-07-26T01:12:42.372Z,59.86
2017-07-26T01:13:42.307Z,59.48
2017-07-26T01:14:42.248Z,59.58
2017-07-26T01:15:42.287Z,60.06
2017-07-26T01:16:42.127Z,59.96
2017-07-26T01:17:42.062Z,59.8
2017-07-26T01:18:41.998Z,59.77
2017-07-26T01:19:41.937Z,59.77
2017-07-26T01:20:42.024Z,60.16
2017-07-26T01:21:41.813Z,59.77
2017-07-26T01:22:41.752Z,59.77
2017-07-26T01:23:41.696Z,59.77
2017-07-26T01:24:41.626Z,59.96
2017-07-26T01:25:41.718Z,59.28
2017-07-26T01:26:41.503Z,59.58
2017-07-26T01:27:41.443Z,59.7
2017-07-26T01:28:41.405Z,59.58
2017-07-26T01:29:41.325Z,59.86
2017-07-26T01:30:41.662Z,59.67
2017-07-26T01:31:41.224Z,60.06
2017-07-26T01:32:41.135Z,59.86
2017-07-26T01:33:41.072Z,59.86
2017-07-26T01:34:41.013Z,59.86
2017-07-26T01:35:41.203Z,59.58
2017-07-26T01:36:40.891Z,59.67
2017-07-26T01:37:40.826Z,60.06
2017-07-26T01:38:40.765Z,60.06
2017-07-26T01:39:40.703Z,59.8
2017-07-26T01:40:40.947Z,59.58
2017-07-26T01:41:40.582Z,59.58
2017-07-26T01:42:40.514Z,59.77
2017-07-26T01:43:40.455Z,59.67
2017-07-26T01:44:40.400Z,59.58
2017-07-26T01:45:40.444Z,59.86
2017-07-26T01:46:40.278Z,59.77
2017-07-26T01:47:40.208Z,59.6
2017-07-26T01:48:39.818Z,59.96
2017-07-26T01:49:40.084Z,59.86
2017-07-26T01:50:40.020Z,59.67
2017-07-26T01:51:39.961Z,59.86
2017-07-26T01:52:39.900Z,59.86
2017-07-26T01:53:39.837Z,59.77
2017-07-26T01:54:39.777Z,59.58
2017-07-26T01:55:39.714Z,59.48
2017-07-26T01:56:39.653Z,59.38
2017-07-26T01:57:39.590Z,59.48
2017-07-26T01:58:39.529Z,59.58
2017-07-26T01:59:39.467Z,59.77
2017-07-26T02:00:39.406Z,59.48
2017-07-26T02:01:39.343Z,59.86
2017-07-26T02:02:39.479Z,59.38
2017-07-26T02:03:39.228Z,59.48
2017-07-26T02:04:39.157Z,59.67
2017-07-26T02:05:39.195Z,59.77
2017-07-26T02:06:39.034Z,59.58
2017-07-26T02:07:38.973Z,59.48
2017-07-26T02:08:38.582Z,59.38
2017-07-26T02:09:38.850Z,59.58
2017-07-26T02:10:38.790Z,59.58
2017-07-26T02:11:39.925Z,59.86
2017-07-26T02:12:38.662Z,59.58
2017-07-26T02:13:38.607Z,59.58
2017-07-26T02:14:38.539Z,59.38
2017-07-26T02:15:38.478Z,59.67
2017-07-26T02:16:38.417Z,59.38
2017-07-26T02:17:38.356Z,59.86
2017-07-26T02:18:38.293Z,59.77
2017-07-26T02:19:38.236Z,59.77
2017-07-26T02:20:38.269Z,59.77
2017-07-26T02:21:38.107Z,59.77
2017-07-26T02:22:38.043Z,59.77
2017-07-26T02:23:37.985Z,59.67
2017-07-26T02:24:37.920Z,59.67
2017-07-26T02:25:37.865Z,59.48
2017-07-26T02:26:37.799Z,59.58
2017-07-26T02:27:37.742Z,59.48
2017-07-26T02:28:37.675Z,59.67
2017-07-26T02:29:37.613Z,59.58
2017-07-26T02:30:37.557Z,59.67
2017-07-26T02:31:37.497Z,59.77
2017-07-26T02:32:37.427Z,59.77
2017-07-26T02:33:37.365Z,59.48
2017-07-26T02:34:37.305Z,59.77
2017-07-26T02:35:37.242Z,59.58
2017-07-26T02:36:37.180Z,59.77
2017-07-26T02:37:37.121Z,59.67
2017-07-26T02:38:37.054Z,59.48
2017-07-26T02:39:36.995Z,59.67
2017-07-26T02:40:36.938Z,59.86
2017-07-26T02:41:36.869Z,59.48
2017-07-26T02:42:36.809Z,59.48
2017-07-26T02:43:36.747Z,59.77
2017-07-26T02:44:36.683Z,59.48
2017-07-26T02:45:36.776Z,59.48
2017-07-26T02:46:36.560Z,59.77
2017-07-26T02:47:36.170Z,59.77
2017-07-26T02:48:36.441Z,59.58
2017-07-26T02:49:36.048Z,59.58
2017-07-26T02:50:36.320Z,59.58
2017-07-26T02:51:36.253Z,59.67
2017-07-26T02:52:36.192Z,59.96
2017-07-26T02:53:36.129Z,59.77
2017-07-26T02:54:36.067Z,60.06
2017-07-26T02:55:36.007Z,60.16
2017-07-26T02:56:35.943Z,59.96
2017-07-26T02:57:35.880Z,59.86
2017-07-26T02:58:35.491Z,60.06
2017-07-26T02:59:35.756Z,60.06
2017-07-26T03:00:35.700Z,60.16
2017-07-26T03:01:35.635Z,59.38
2017-07-26T03:02:35.572Z,60.06
2017-07-26T03:03:35.510Z,60.06
2017-07-26T03:04:35.121Z,60.06
2017-07-26T03:05:35.057Z,59.77
2017-07-26T03:06:35.329Z,59.77
2017-07-26T03:07:35.264Z,59.86
2017-07-26T03:08:34.874Z,60.06
2017-07-26T03:09:34.814Z,59.58
2017-07-26T03:10:35.077Z,59.77
2017-07-26T03:11:35.020Z,59.77
2017-07-26T03:12:34.956Z,59.77
2017-07-26T03:13:34.890Z,59.86
2017-07-26T03:14:34.828Z,59.67
2017-07-26T03:15:34.919Z,59.67
2017-07-26T03:16:34.706Z,60.06
2017-07-26T03:17:34.645Z,59.86
2017-07-26T03:18:34.582Z,59.67
2017-07-26T03:19:34.528Z,59.96
2017-07-26T03:20:34.459Z,59.96
2017-07-26T03:21:34.396Z,60.06
2017-07-26T03:22:34.335Z,59.86
2017-07-26T03:23:34.274Z,59.96
2017-07-26T03:24:34.211Z,60.06
2017-07-26T03:25:34.149Z,60.06
2017-07-26T03:26:34.087Z,60.35
2017-07-26T03:27:34.026Z,60.16
2017-07-26T03:28:33.962Z,60.16
2017-07-26T03:29:33.901Z,60.06
2017-07-26T03:30:33.841Z,60.25
2017-07-26T03:31:33.778Z,60.16
2017-07-26T03:32:33.721Z,60.16
2017-07-26T03:33:33.654Z,60.44
2017-07-26T03:34:33.593Z,60.06
2017-07-26T03:35:33.532Z,60.25
2017-07-26T03:36:33.469Z,60.25
2017-07-26T03:37:33.409Z,60.16
2017-07-26T03:38:33.345Z,60.25
2017-07-26T03:39:33.286Z,59.86
2017-07-26T03:40:33.221Z,60.25
2017-07-26T03:41:33.163Z,60.35
2017-07-26T03:42:33.097Z,60.16
2017-07-26T03:43:33.036Z,60.35
2017-07-26T03:44:32.975Z,60.35
2017-07-26T03:45:32.910Z,60.44
2017-07-26T03:46:32.850Z,59.86
2017-07-26T03:47:32.788Z,60.06
2017-07-26T03:48:32.725Z,60.25
2017-07-26T03:49:32.675Z,59.96
2017-07-26T03:50:32.608Z,60.44
2017-07-26T03:51:32.540Z,59.86
2017-07-26T03:52:32.479Z,59.86
2017-07-26T03:53:32.419Z,60.16
2017-07-26T03:54:32.359Z,59.96
2017-07-26T03:55:32.312Z,60.06
2017-07-26T03:56:32.232Z,59.96
2017-07-26T03:57:32.168Z,59.96
2017-07-26T03:58:32.109Z,60.06
2017-07-26T03:59:32.045Z,60.44
2017-07-26T04:00:31.988Z,60.06
2017-07-26T04:01:31.923Z,60.06
2017-07-26T04:02:31.859Z,60.44
2017-07-26T04:03:31.799Z,60.06
2017-07-26T04:04:31.737Z,59.86
2017-07-26T04:05:31.673Z,60.54
2017-07-26T04:06:31.611Z,60.54
2017-07-26T04:07:31.551Z,60.54
2017-07-26T04:08:31.486Z,60.73
2017-07-26T04:09:31.428Z,60.54
2017-07-26T04:10:31.365Z,60.73
2017-07-26T04:11:31.305Z,60.73
2017-07-26T04:12:31.240Z,60.44
2017-07-26T04:13:31.182Z,60.73
2017-07-26T04:14:31.115Z,60.64
2017-07-26T04:15:31.056Z,60.44
2017-07-26T04:16:31.017Z,60.64
2017-07-26T04:17:30.930Z,60.44
2017-07-26T04:18:30.871Z,60.64
2017-07-26T04:19:30.807Z,60.44
2017-07-26T04:20:30.746Z,60.44
2017-07-26T04:21:30.685Z,60.64
2017-07-26T04:22:30.297Z,60.54
2017-07-26T04:23:30.563Z,60.44
2017-07-26T04:24:30.500Z,60.44
2017-07-26T04:25:30.438Z,60.54
2017-07-26T04:26:30.374Z,60.64
2017-07-26T04:27:29.988Z,60.54
2017-07-26T04:28:30.259Z,60.54
2017-07-26T04:29:29.858Z,60.54
2017-07-26T04:30:30.127Z,60.64
2017-07-26T04:31:30.069Z,60.54
2017-07-26T04:32:30.003Z,60.64
2017-07-26T04:33:29.613Z,60.73
2017-07-26T04:34:29.882Z,60.44
2017-07-26T04:35:29.819Z,60.54
2017-07-26T04:36:29.757Z,60.54
2017-07-26T04:37:29.693Z,60.35
2017-07-26T04:38:29.631Z,60.64
2017-07-26T04:39:29.574Z,61.12
2017-07-26T04:40:29.180Z,60.93
2017-07-26T04:41:29.446Z,60.93
2017-07-26T04:42:29.384Z,61.12
2017-07-26T04:43:29.323Z,61.12
2017-07-26T04:44:29.260Z,61.02
2017-07-26T04:45:29.201Z,61.02
2017-07-26T04:46:29.137Z,60.73
2017-07-26T04:47:29.073Z,60.83
2017-07-26T04:48:29.014Z,60.93
2017-07-26T04:49:29.160Z,60.93
2017-07-26T04:50:28.889Z,60.93
2017-07-26T04:51:28.827Z,60.73
2017-07-26T04:52:28.437Z,60.73
2017-07-26T04:53:28.702Z,60.83
2017-07-26T04:54:28.643Z,60.93
2017-07-26T04:55:28.581Z,61.12
2017-07-26T04:56:28.523Z,60.93
2017-07-26T04:57:28.463Z,60.83
2017-07-26T04:58:28.393Z,60.83
2017-07-26T04:59:28.329Z,60.93
2017-07-26T05:00:28.273Z,61.02
2017-07-26T05:01:28.209Z,60.83
2017-07-26T05:02:28.147Z,60.93
2017-07-26T05:03:28.082Z,60.93
2017-07-26T05:04:28.024Z,60.83
2017-07-26T05:05:27.960Z,60.54
2017-07-26T05:06:27.903Z,60.64
2017-07-26T05:07:27.838Z,60.73
2017-07-26T05:08:27.775Z,60.44
2017-07-26T05:09:27.716Z,60.83
2017-07-26T05:10:27.653Z,60.73
2017-07-26T05:11:27.590Z,60.44
2017-07-26T05:12:27.528Z,60.54
2017-07-26T05:13:27.667Z,60.73
2017-07-26T05:14:27.404Z,60.44
2017-07-26T05:15:27.012Z,60.44
2017-07-26T05:16:27.280Z,60.93
2017-07-26T05:17:27.219Z,60.44
2017-07-26T05:18:27.156Z,60.54
2017-07-26T05:19:27.297Z,60.73
2017-07-26T05:20:27.044Z,60.73
2017-07-26T05:21:26.970Z,60.64
2017-07-26T05:22:26.911Z,61.41
2017-07-26T05:23:26.847Z,61.12
2017-07-26T05:24:26.787Z,61.22
2017-07-26T05:25:26.723Z,61.02
2017-07-26T05:26:26.668Z,61.12
2017-07-26T05:27:26.268Z,61.12
2017-07-26T05:28:26.539Z,61.12
2017-07-26T05:29:26.474Z,60.93
2017-07-26T05:30:26.413Z,61.12
2017-07-26T05:31:26.353Z,61.6
2017-07-26T05:32:26.293Z,61.6
2017-07-26T05:33:26.228Z,61.22
2017-07-26T05:34:26.164Z,61.51
2017-07-26T05:35:26.103Z,61.6
2017-07-26T05:36:26.040Z,61.22
2017-07-26T05:37:25.980Z,61.51
2017-07-26T05:38:25.917Z,61.31
2017-07-26T05:39:25.861Z,61.51
2017-07-26T05:40:25.804Z,61.41
2017-07-26T05:41:25.731Z,61.6
2017-07-26T05:42:25.670Z,61.89
2017-07-26T05:43:25.633Z,61.6
2017-07-26T05:44:25.217Z,61.6
2017-07-26T05:45:25.484Z,61.6
2017-07-26T05:46:25.424Z,61.8
2017-07-26T05:47:25.361Z,61.8
2017-07-26T05:48:25.299Z,61.6
2017-07-26T05:49:25.240Z,61.6
2017-07-26T05:50:25.176Z,61.51
2017-07-26T05:51:25.112Z,61.8
2017-07-26T05:52:25.057Z,61.7
2017-07-26T05:53:24.993Z,62.28
2017-07-26T05:54:24.925Z,62.37
2017-07-26T05:55:24.867Z,62.28
2017-07-26T05:56:24.805Z,62.28
2017-07-26T05:57:24.411Z,62.18
2017-07-26T05:58:24.350Z,62.57
2017-07-26T05:59:24.286Z,61.99
2017-07-26T06:00:24.225Z,62.66
2017-07-26T06:01:24.499Z,62.66
2017-07-26T06:02:24.431Z,62.18
2017-07-26T06:03:25.455Z,62.37
2017-07-26T06:04:24.308Z,62.66
2017-07-26T06:05:24.445Z,62.76
2017-07-26T06:06:24.192Z,62.66
2017-07-26T06:07:23.790Z,62.57
2017-07-26T06:08:24.060Z,62.57
2017-07-26T06:09:23.996Z,62.95
2017-07-26T06:10:23.936Z,62.47
2017-07-26T06:11:23.544Z,62.66
2017-07-26T06:12:23.812Z,62.86
2017-07-26T06:13:23.751Z,62.86
2017-07-26T06:14:23.689Z,62.66
2017-07-26T06:15:23.626Z,62.95
2017-07-26T06:16:23.568Z,63.05
2017-07-26T06:17:23.499Z,63.15
2017-07-26T06:18:23.441Z,62.86
2017-07-26T06:19:23.379Z,62.76
2017-07-26T06:20:23.320Z,62.86
2017-07-26T06:21:23.256Z,62.86
2017-07-26T06:22:23.193Z,62.76
2017-07-26T06:23:23.136Z,62.86
2017-07-26T06:24:23.070Z,63.05
2017-07-26T06:25:23.007Z,63.24
2017-07-26T06:26:22.945Z,63.15
2017-07-26T06:27:22.884Z,63.43
2017-07-26T06:28:22.490Z,63.05
2017-07-26T06:29:22.763Z,63.05
2017-07-26T06:30:22.699Z,63.34
2017-07-26T06:31:22.636Z,63.34
2017-07-26T06:32:22.578Z,63.34
2017-07-26T06:33:22.512Z,63.82
2017-07-26T06:34:22.449Z,63.53
2017-07-26T06:35:22.388Z,63.43
2017-07-26T06:36:22.327Z,63.43
2017-07-26T06:37:22.266Z,63.43
2017-07-26T06:38:22.200Z,63.43
2017-07-26T06:39:22.142Z,63.34
2017-07-26T06:40:22.081Z,63.43
2017-07-26T06:41:22.035Z,63.24
2017-07-26T06:42:21.974Z,63.34
2017-07-26T06:43:21.910Z,63.34
2017-07-26T06:44:21.542Z,63.53
2017-07-26T06:45:21.767Z,64.11
2017-07-26T06:46:21.704Z,63.92
2017-07-26T06:47:21.314Z,64.01
2017-07-26T06:48:21.251Z,63.82
2017-07-26T06:49:21.519Z,63.92
2017-07-26T06:50:21.465Z,64.01
2017-07-26T06:51:21.401Z,63.92
2017-07-26T06:52:21.334Z,64.31
2017-07-26T06:53:21.272Z,63.82
2017-07-26T06:54:20.883Z,63.82
2017-07-26T06:55:21.150Z,64.01
2017-07-26T06:56:21.086Z,64.01
2017-07-26T06:57:21.025Z,64.5
2017-07-26T06:58:20.964Z,64.21
2017-07-26T06:59:20.904Z,64.11
2017-07-26T07:00:20.838Z,64.21
2017-07-26T07:01:20.456Z,64.11
2017-07-26T07:02:20.386Z,64.5
2017-07-26T07:03:20.654Z,64.5
2017-07-26T07:04:20.260Z,64.69
2017-07-26T07:05:20.199Z,64.31
2017-07-26T07:06:20.468Z,64.59
2017-07-26T07:07:20.407Z,64.5
2017-07-26T07:08:20.344Z,64.5
2017-07-26T07:09:20.280Z,64.89
2017-07-26T07:10:20.225Z,64.69
2017-07-26T07:11:20.157Z,64.5
2017-07-26T07:12:20.099Z,64.79
2017-07-26T07:13:20.036Z,64.31
2017-07-26T07:14:19.973Z,64.59
2017-07-26T07:15:19.580Z,64.59
2017-07-26T07:16:19.861Z,64.79
2017-07-26T07:17:19.788Z,64.4
2017-07-26T07:18:19.724Z,64.5
2017-07-26T07:19:19.681Z,64.79
2017-07-26T07:20:19.600Z,64.79
2017-07-26T07:21:19.544Z,64.79
2017-07-26T07:22:19.476Z,64.69
2017-07-26T07:23:19.449Z,64.79
2017-07-26T07:24:19.542Z,64.79
2017-07-26T07:25:19.295Z,64.5
2017-07-26T07:26:19.228Z,64.69
2017-07-26T07:27:19.169Z,64.89
2017-07-26T07:28:19.104Z,64.69
2017-07-26T07:29:19.043Z,64.59
2017-07-26T07:30:18.992Z,64.5
2017-07-26T07:31:18.918Z,64.79
2017-07-26T07:32:18.856Z,64.59
2017-07-26T07:33:18.794Z,64.59
2017-07-26T07:34:18.402Z,64.79
2017-07-26T07:35:18.677Z,64.4
2017-07-26T07:36:18.647Z,64.31
2017-07-26T07:37:18.545Z,64.69
2017-07-26T07:38:18.485Z,64.98
2017-07-26T07:39:18.422Z,64.79
2017-07-26T07:40:18.359Z,65.34
2017-07-26T07:41:18.298Z,64.86
2017-07-26T07:42:18.252Z,64.95
2017-07-26T07:43:18.174Z,65.43
2017-07-26T07:44:18.114Z,65.34
2017-07-26T07:45:18.047Z,65.14
2017-07-26T07:46:17.657Z,65.05
2017-07-26T07:47:17.926Z,64.98
2017-07-26T07:48:17.862Z,64.98
2017-07-26T07:49:17.470Z,65.34
2017-07-26T07:50:17.737Z,65.43
2017-07-26T07:51:17.682Z,65.37
2017-07-26T07:52:17.614Z,65.53
2017-07-26T07:53:17.556Z,65.43
2017-07-26T07:54:17.488Z,65.43
2017-07-26T07:55:17.426Z,65.43
2017-07-26T07:56:17.364Z,65.43
2017-07-26T07:57:17.301Z,65.53
2017-07-26T07:58:17.242Z,65.34
2017-07-26T07:59:17.050Z,65.72
2017-07-26T08:00:16.790Z,65.85
2017-07-26T08:01:17.053Z,65.66
2017-07-26T08:02:16.994Z,65.56
2017-07-26T08:03:16.929Z,65.47
2017-07-26T08:04:16.864Z,65.75
2017-07-26T08:05:16.809Z,65.66
2017-07-26T08:06:16.741Z,65.95
2017-07-26T08:07:16.678Z,66.53
2017-07-26T08:08:16.616Z,66.33
2017-07-26T08:09:16.552Z,66.53
2017-07-26T08:10:16.496Z,66.91
2017-07-26T08:11:16.428Z,66.72
2017-07-26T08:12:16.366Z,66.72
2017-07-26T08:13:16.303Z,66.72
2017-07-26T08:14:16.242Z,66.82
2017-07-26T08:15:16.184Z,66.53
2017-07-26T08:16:16.117Z,67.2
2017-07-26T08:17:16.056Z,66.72
2017-07-26T08:18:15.998Z,67.2
2017-07-26T08:19:15.931Z,67.3
2017-07-26T08:20:15.539Z,67.2
2017-07-26T08:21:15.807Z,67.78
2017-07-26T08:22:15.746Z,67.24
2017-07-26T08:23:15.688Z,67.24
2017-07-26T08:24:15.633Z,67.3
2017-07-26T08:25:15.563Z,67.2
2017-07-26T08:26:15.505Z,67.62
2017-07-26T08:27:15.436Z,67.72
2017-07-26T08:28:15.375Z,67.43
2017-07-26T08:29:15.314Z,67.52
2017-07-26T08:30:14.921Z,67.62
2017-07-26T08:31:15.189Z,68.01
2017-07-26T08:32:15.125Z,67.82
2017-07-26T08:33:15.066Z,68.01
2017-07-26T08:34:15.007Z,68.59
2017-07-26T08:35:14.612Z,68.49
2017-07-26T08:36:14.880Z,68.1
2017-07-26T08:37:14.818Z,68.49
2017-07-26T08:38:14.755Z,67.91
2017-07-26T08:39:14.697Z,67.91
2017-07-26T08:40:14.794Z,68.01
2017-07-26T08:41:14.571Z,67.82
2017-07-26T08:42:14.510Z,67.52
2017-07-26T08:43:14.449Z,68.01
2017-07-26T08:44:14.385Z,67.82
2017-07-26T08:45:14.337Z,67.91
2017-07-26T08:46:14.266Z,67.91
2017-07-26T08:47:14.201Z,67.72
2017-07-26T08:48:14.141Z,67.91
2017-07-26T08:49:14.082Z,67.72
2017-07-26T08:50:14.017Z,67.72
2017-07-26T08:51:14.155Z,67.72
2017-07-26T08:52:13.914Z,67.72
2017-07-26T08:53:13.524Z,67.91
2017-07-26T08:54:13.797Z,67.04
2017-07-26T08:55:13.706Z,67.33
2017-07-26T08:56:13.657Z,67.91
2017-07-26T08:57:13.587Z,67.24
2017-07-26T08:58:13.538Z,67.24
2017-07-26T08:59:13.134Z,67.82
2017-07-26T09:00:13.401Z,67.91
2017-07-26T09:01:13.340Z,67.82
2017-07-26T09:02:13.279Z,67.24
2017-07-26T09:03:13.221Z,67.82
2017-07-26T09:04:13.155Z,67.91
2017-07-26T09:05:13.097Z,67.91
2017-07-26T09:06:13.031Z,67.14
2017-07-26T09:07:12.973Z,67.27
2017-07-26T09:08:12.907Z,67.52
2017-07-26T09:09:12.853Z,67.46
2017-07-26T09:10:12.786Z,67.66
2017-07-26T09:11:12.396Z,67.66
2017-07-26T09:12:12.663Z,67.46
2017-07-26T09:13:12.603Z,67.56
2017-07-26T09:14:12.252Z,67.94
2017-07-26T09:15:12.489Z,67.85
2017-07-26T09:16:12.425Z,67.85
2017-07-26T09:17:12.356Z,67.27
2017-07-26T09:18:12.369Z,67.46
2017-07-26T09:19:12.233Z,67.27
2017-07-26T09:20:12.321Z,67.75
2017-07-26T09:21:12.112Z,67.56
2017-07-26T09:22:12.051Z,67.36
2017-07-26T09:23:11.986Z,67.08
2017-07-26T09:24:11.925Z,67.56
2017-07-26T09:25:11.868Z,67.27
2017-07-26T09:26:11.806Z,66.59
2017-07-26T09:27:11.745Z,66.59
2017-07-26T09:28:11.354Z,66.98
2017-07-26T09:29:11.623Z,66.59
2017-07-26T09:30:11.532Z,66.88
2017-07-26T09:31:11.501Z,66.69
2017-07-26T09:32:11.436Z,66.2
2017-07-26T09:33:11.378Z,66.4
2017-07-26T09:34:11.312Z,66.56
2017-07-26T09:35:11.505Z,66.08
2017-07-26T09:36:11.194Z,65.92
2017-07-26T09:37:10.799Z,65.88
2017-07-26T09:38:11.162Z,66.08
2017-07-26T09:39:11.019Z,66.08
2017-07-26T09:40:10.947Z,65.98
2017-07-26T09:41:10.898Z,66.08
2017-07-26T09:42:10.860Z,65.98
2017-07-26T09:43:10.770Z,66.17
2017-07-26T09:44:10.377Z,66.08
2017-07-26T09:45:10.640Z,65.98
2017-07-26T09:46:10.247Z,66.17
2017-07-26T09:47:10.515Z,66.17
2017-07-26T09:48:10.454Z,65.98
2017-07-26T09:49:10.391Z,65.98
2017-07-26T09:50:10.002Z,66.08
2017-07-26T09:51:10.285Z,65.88
2017-07-26T09:52:09.877Z,65.78
2017-07-26T09:53:10.148Z,65.78
2017-07-26T09:54:10.085Z,66.17
2017-07-26T09:55:10.025Z,65.98
2017-07-26T09:56:09.966Z,65.69
2017-07-26T09:57:09.899Z,65.88
2017-07-26T09:58:09.840Z,65.98
2017-07-26T09:59:09.780Z,65.98
2017-07-26T10:00:09.752Z,65.69
2017-07-26T10:01:09.664Z,65.88
2017-07-26T10:02:09.597Z,65.98
2017-07-26T10:03:09.535Z,66.08
2017-07-26T10:04:09.141Z,65.88
2017-07-26T10:05:09.409Z,65.69
2017-07-26T10:06:09.346Z,65.69
2017-07-26T10:07:09.290Z,65.98
2017-07-26T10:08:09.222Z,65.69
2017-07-26T10:09:09.163Z,65.88
2017-07-26T10:10:09.101Z,65.98
2017-07-26T10:11:09.043Z,65.98
2017-07-26T10:12:08.979Z,65.88
2017-07-26T10:13:08.919Z,65.88
2017-07-26T10:14:08.523Z,65.78
2017-07-26T10:15:08.793Z,65.88
2017-07-26T10:16:08.742Z,65.69
2017-07-26T10:17:08.684Z,65.88
2017-07-26T10:18:08.624Z,65.98
2017-07-26T10:19:08.551Z,65.98
2017-07-26T10:20:08.488Z,65.88
2017-07-26T10:21:08.424Z,65.88
2017-07-26T10:22:08.364Z,66.08
2017-07-26T10:23:08.307Z,65.88
2017-07-26T10:24:08.242Z,65.88
2017-07-26T10:25:07.848Z,65.88
2017-07-26T10:26:08.126Z,65.59
2017-07-26T10:27:08.057Z,65.88
2017-07-26T10:28:07.999Z,65.88
2017-07-26T10:29:07.933Z,65.98
2017-07-26T10:30:07.885Z,65.98
2017-07-26T10:31:07.814Z,65.78
2017-07-26T10:32:07.759Z,65.5
2017-07-26T10:33:07.690Z,65.78
2017-07-26T10:34:07.630Z,65.88
2017-07-26T10:35:07.566Z,65.88
2017-07-26T10:36:07.509Z,65.78
2017-07-26T10:37:07.442Z,65.88
2017-07-26T10:38:07.068Z,65.78
2017-07-26T10:39:07.318Z,65.59
2017-07-26T10:40:07.260Z,65.88
2017-07-26T10:41:07.204Z,65.98
2017-07-26T10:42:07.146Z,65.78
2017-07-26T10:43:07.074Z,65.98
2017-07-26T10:44:07.030Z,65.88
2017-07-26T10:45:06.959Z,65.78
2017-07-26T10:46:06.889Z,65.69
2017-07-26T10:47:06.499Z,65.88
2017-07-26T10:48:06.771Z,65.88
2017-07-26T10:49:06.707Z,66.08
2017-07-26T10:50:06.650Z,65.69
2017-07-26T10:51:06.596Z,65.78
2017-07-26T10:52:06.528Z,65.98
2017-07-26T10:53:06.465Z,65.88
2017-07-26T10:54:06.401Z,65.98
2017-07-26T10:55:06.635Z,65.69
2017-07-26T10:56:06.273Z,65.78
2017-07-26T10:57:06.211Z,65.98
2017-07-26T10:58:06.151Z,65.88
2017-07-26T10:59:06.090Z,65.78
2017-07-26T11:00:06.029Z,65.98
2017-07-26T11:01:05.968Z,66.08
2017-07-26T11:02:05.912Z,65.78
2017-07-26T11:03:05.850Z,66.27
2017-07-26T11:04:05.458Z,66.36
2017-07-26T11:05:05.722Z,66.17
2017-07-26T11:06:05.666Z,66.53
2017-07-26T11:07:05.614Z,66.63
2017-07-26T11:08:05.538Z,66.63
2017-07-26T11:09:05.150Z,66.53
2017-07-26T11:10:05.425Z,66.33
2017-07-26T11:11:05.354Z,66.63
2017-07-26T11:12:05.299Z,66.63
2017-07-26T11:13:04.909Z,66.72
2017-07-26T11:14:04.840Z,66.63
2017-07-26T11:15:05.117Z,66.53
2017-07-26T11:16:04.725Z,66.53
2017-07-26T11:17:04.988Z,66.63
2017-07-26T11:18:04.927Z,66.72
2017-07-26T11:19:04.873Z,66.82
2017-07-26T11:20:04.879Z,66.63
2017-07-26T11:21:04.746Z,66.82
2017-07-26T11:22:04.706Z,66.82
2017-07-26T11:23:04.618Z,66.91
2017-07-26T11:24:04.557Z,66.72
2017-07-26T11:25:04.499Z,66.82
2017-07-26T11:26:04.438Z,67.2
2017-07-26T11:27:04.383Z,67.3
2017-07-26T11:28:04.323Z,67.3
2017-07-26T11:29:04.252Z,67.3
2017-07-26T11:30:04.201Z,67.3
2017-07-26T11:31:04.128Z,67.3
2017-07-26T11:32:04.065Z,67.3
2017-07-26T11:33:04.003Z,67.3
2017-07-26T11:34:03.944Z,67.3
2017-07-26T11:35:03.880Z,67.49
2017-07-26T11:36:03.843Z,67.4
2017-07-26T11:37:03.756Z,67.3
2017-07-26T11:38:03.365Z,67.49
2017-07-26T11:39:03.633Z,67.49
2017-07-26T11:40:03.572Z,67.11
2017-07-26T11:41:03.182Z,67.2
2017-07-26T11:42:03.119Z,67.3
2017-07-26T11:43:03.392Z,66.91
2017-07-26T11:44:03.325Z,67.3
2017-07-26T11:45:03.267Z,67.01
2017-07-26T11:46:03.201Z,67.3
2017-07-26T11:47:03.140Z,66.91
2017-07-26T11:48:03.080Z,66.91
2017-07-26T11:49:03.019Z,67.3
2017-07-26T11:50:02.954Z,67.3
2017-07-26T11:51:02.897Z,67.4
2017-07-26T11:52:02.833Z,67.11
2017-07-26T11:53:02.770Z,67.3
2017-07-26T11:54:02.711Z,67.3
2017-07-26T11:55:02.648Z,67.4
2017-07-26T11:56:02.586Z,67.3
2017-07-26T11:57:02.525Z,67.2
2017-07-26T11:58:02.464Z,67.4
2017-07-26T11:59:02.402Z,67.4
2017-07-26T12:00:02.340Z,67.11
2017-07-26T12:01:02.282Z,67.01
2017-07-26T12:02:02.219Z,67.01
2017-07-26T12:03:02.158Z,67.3
2017-07-26T12:04:02.094Z,67.3
2017-07-26T12:05:02.038Z,67.11
2017-07-26T12:06:01.972Z,67.4
2017-07-26T12:07:01.907Z,67.3
2017-07-26T12:08:01.518Z,67.3
2017-07-26T12:09:01.785Z,67.49
2017-07-26T12:10:01.726Z,67.49
2017-07-26T12:11:01.660Z,67.4
2017-07-26T12:12:01.603Z,67.4
2017-07-26T12:13:01.547Z,67.4
2017-07-26T12:14:01.147Z,67.4
2017-07-26T12:15:01.418Z,67.2
2017-07-26T12:16:01.355Z,67.3
2017-07-26T12:17:01.293Z,67.3
2017-07-26T12:18:01.234Z,67.2
2017-07-26T12:19:01.173Z,67.11
2017-07-26T12:20:01.108Z,67.2
2017-07-26T12:21:01.048Z,67.11
2017-07-26T12:22:00.984Z,67.78
2017-07-26T12:23:00.615Z,67.01
2017-07-26T12:24:00.868Z,67.91
2017-07-26T12:25:00.798Z,67.49
2017-07-26T12:26:00.741Z,67.59
2017-07-26T12:27:00.677Z,67.49
2017-07-26T12:28:00.623Z,67.3
2017-07-26T12:29:00.553Z,67.72
2017-07-26T12:30:00.492Z,67.49
2017-07-26T12:31:00.431Z,67.52
2017-07-26T12:32:00.376Z,67.72
2017-07-26T12:33:00.309Z,67.62
2017-07-26T12:34:00.246Z,67.52
2017-07-26T12:35:00.187Z,68.1
2017-07-26T12:36:00.122Z,67.91
2017-07-26T12:37:00.063Z,67.82
2017-07-26T12:38:00.001Z,67.82
2017-07-26T12:38:59.943Z,68.01
2017-07-26T12:39:59.884Z,68.1
2017-07-26T12:40:59.823Z,68.1
2017-07-26T12:41:59.760Z,68.1
2017-07-26T12:42:59.368Z,67.91
2017-07-26T12:43:59.639Z,68.01
2017-07-26T12:44:59.577Z,68.01
2017-07-26T12:45:59.517Z,67.91
2017-07-26T12:46:59.461Z,68.2
2017-07-26T12:47:59.394Z,68.01
2017-07-26T12:48:59.337Z,68.2
2017-07-26T12:49:59.272Z,68.3
2017-07-26T12:50:59.216Z,68.4
2017-07-26T12:51:59.149Z,68.2
2017-07-26T12:52:59.087Z,68.59
2017-07-26T12:53:59.038Z,68.68
2017-07-26T12:54:58.971Z,68.49
2017-07-26T12:55:58.905Z,68.49
2017-07-26T12:56:58.849Z,68.4